createdAt,value
2024-03-01T00:02:20.369Z,15.13
2024-03-01T00:05:00.650Z,16.07
2024-03-01T00:07:41.043Z,15.20
2024-03-01T00:10:21.042Z,16.47
2024-03-01T00:13:01.085Z,14.27
2024-03-01T00:15:41.453Z,15.07
2024-03-01T00:18:21.933Z,15.93
2024-03-01T00:21:01.995Z,14.47
2024-03-01T00:23:43.608Z,14.57
2024-03-01T00:26:23.881Z,15.27
2024-03-01T00:29:04.349Z,15.07
2024-03-01T00:31:44.203Z,15.30
2024-03-01T00:34:24.549Z,33.40
2024-03-01T00:37:05.218Z,25.43
2024-03-01T00:39:45.285Z,17.63
2024-03-01T00:42:25.641Z,16.47
2024-03-01T00:45:06.403Z,15.87
2024-03-01T00:47:51.252Z,16.63
2024-03-01T00:50:31.609Z,16.23
2024-03-01T00:53:11.654Z,16.67
2024-03-01T00:55:52.129Z,15.40
2024-03-01T00:58:32.201Z,17.37
2024-03-01T01:01:14.270Z,15.97
2024-03-01T01:03:54.691Z,17.23
2024-03-01T01:06:34.642Z,18.23
2024-03-01T01:09:14.429Z,16.70
2024-03-01T01:11:54.981Z,18.50
2024-03-01T01:14:35.438Z,17.27
2024-03-01T01:17:15.695Z,16.70
2024-03-01T01:19:59.261Z,18.33
2024-03-01T01:22:40.039Z,17.00
2024-03-01T01:25:20.401Z,16.77
2024-03-01T01:28:01.166Z,16.93
2024-03-01T01:30:41.592Z,17.07
2024-03-01T01:33:21.623Z,15.70
2024-03-01T01:36:01.832Z,14.87
2024-03-01T01:38:41.918Z,16.03
2024-03-01T01:41:21.880Z,16.60
2024-03-01T01:44:02.227Z,17.20
2024-03-01T01:46:43.401Z,17.03
2024-03-01T01:49:27.451Z,16.90
2024-03-01T01:52:08.947Z,17.43
2024-03-01T01:54:49.410Z,17.63
2024-03-01T01:57:29.886Z,16.50
2024-03-01T02:00:11.518Z,16.93
2024-03-01T02:02:52.328Z,18.07
2024-03-01T02:05:33.081Z,18.63
2024-03-01T02:08:13.325Z,17.23
2024-03-01T02:10:53.324Z,17.03
2024-03-01T02:13:33.366Z,18.53
2024-03-01T02:16:13.686Z,17.53
2024-03-01T02:18:54.009Z,17.67
2024-03-01T02:21:37.424Z,16.53
2024-03-01T02:24:17.396Z,16.83
2024-03-01T02:27:00.638Z,16.63
2024-03-01T02:29:42.349Z,15.93
2024-03-01T02:32:22.361Z,14.93
2024-03-01T02:35:02.871Z,16.50
2024-03-01T02:37:46.218Z,16.77
2024-03-01T02:40:26.736Z,16.23
2024-03-01T02:43:08.092Z,16.27
2024-03-01T02:45:48.615Z,14.57
2024-03-01T02:48:28.962Z,17.30
2024-03-01T02:51:09.857Z,15.53
2024-03-01T02:53:49.978Z,15.43
2024-03-01T02:56:29.871Z,16.13
2024-03-01T02:59:11.508Z,16.67
2024-03-01T03:01:51.806Z,17.20
2024-03-01T03:04:32.523Z,16.00
2024-03-01T03:07:13.403Z,17.40
2024-03-01T03:09:53.924Z,16.33
2024-03-01T03:12:34.267Z,18.17
2024-03-01T03:15:14.761Z,35.10
2024-03-01T03:17:55.308Z,21.70
2024-03-01T03:20:36.717Z,21.53
2024-03-01T03:23:17.094Z,18.77
2024-03-01T03:25:56.973Z,19.37
2024-03-01T03:28:37.166Z,18.50
2024-03-01T03:31:17.625Z,20.53
2024-03-01T03:33:57.804Z,19.90
2024-03-01T03:36:37.777Z,21.87
2024-03-01T03:39:18.295Z,24.97
2024-03-01T03:41:58.292Z,20.97
2024-03-01T03:44:38.640Z,19.80
2024-03-01T03:47:18.597Z,18.60
2024-03-01T03:50:00.123Z,17.60
2024-03-01T03:52:40.218Z,19.33
2024-03-01T03:55:21.300Z,18.87
2024-03-01T03:58:01.656Z,17.73
2024-03-01T04:00:41.831Z,18.13
2024-03-01T04:03:21.880Z,17.50
2024-03-01T04:06:04.668Z,17.60
2024-03-01T04:08:44.832Z,19.00
2024-03-01T04:11:25.412Z,17.93
2024-03-01T04:14:05.565Z,19.73
2024-03-01T04:16:46.182Z,18.13
2024-03-01T04:19:26.523Z,17.87
2024-03-01T04:22:07.105Z,18.13
2024-03-01T04:24:47.512Z,19.73
2024-03-01T04:27:28.196Z,21.17
2024-03-01T04:30:11.691Z,19.90
2024-03-01T04:32:51.642Z,18.47
2024-03-01T04:35:31.954Z,19.37
2024-03-01T04:38:12.323Z,18.97
2024-03-01T04:40:52.300Z,19.17
2024-03-01T04:43:32.206Z,19.33
2024-03-01T04:46:12.469Z,20.33
2024-03-01T04:48:55.982Z,18.50
2024-03-01T04:51:36.894Z,20.60
2024-03-01T04:54:17.598Z,18.70
2024-03-01T04:56:57.492Z,17.63
2024-03-01T04:59:40.263Z,20.57
2024-03-01T05:02:20.851Z,19.70
2024-03-01T05:05:01.202Z,19.30
2024-03-01T05:07:41.583Z,19.07
2024-03-01T05:10:25.045Z,19.67
2024-03-01T05:13:07.144Z,19.43
2024-03-01T05:15:48.080Z,18.73
2024-03-01T05:18:28.240Z,19.40
2024-03-01T05:21:10.191Z,20.97
2024-03-01T05:23:51.209Z,19.80
2024-03-01T05:26:31.332Z,20.50
2024-03-01T05:29:11.374Z,21.30
2024-03-01T05:31:51.872Z,23.60
2024-03-01T05:34:33.118Z,33.23
2024-03-01T05:37:13.384Z,34.47
2024-03-01T05:39:53.628Z,26.03
2024-03-01T05:42:34.112Z,21.30
2024-03-01T05:45:14.217Z,22.13
2024-03-01T05:47:54.432Z,21.17
2024-03-01T05:50:34.698Z,21.67
2024-03-01T05:53:18.526Z,21.97
2024-03-01T05:56:00.765Z,21.97
2024-03-01T05:58:41.474Z,21.90
2024-03-01T06:01:21.787Z,21.43
2024-03-01T06:04:11.272Z,22.13
2024-03-01T06:06:51.887Z,22.73
2024-03-01T06:09:32.241Z,20.67
2024-03-01T06:12:12.372Z,22.13
2024-03-01T06:14:52.964Z,23.70
2024-03-01T06:17:33.765Z,22.53
2024-03-01T06:20:14.140Z,22.83
2024-03-01T06:22:54.476Z,22.73
2024-03-01T06:25:34.485Z,22.37
2024-03-01T06:28:15.423Z,22.60
2024-03-01T06:30:55.823Z,21.27
2024-03-01T06:33:35.994Z,22.80
2024-03-01T06:36:15.859Z,22.80
2024-03-01T06:38:55.884Z,23.03
2024-03-01T06:41:36.004Z,22.23
2024-03-01T06:44:21.645Z,22.47
2024-03-01T06:47:04.294Z,22.60
2024-03-01T06:49:47.260Z,22.03
2024-03-01T06:52:27.515Z,21.23
2024-03-01T06:55:09.235Z,22.70
2024-03-01T06:57:49.465Z,45.77
2024-03-01T07:00:29.971Z,41.90
2024-03-01T07:03:10.310Z,39.67
2024-03-01T07:05:50.623Z,29.37
2024-03-01T07:08:30.840Z,31.70
2024-03-01T07:11:10.924Z,32.40
2024-03-01T07:13:51.048Z,26.83
2024-03-01T07:16:31.695Z,26.20
2024-03-01T07:19:12.157Z,24.33
2024-03-01T07:21:52.519Z,22.23
2024-03-01T07:24:32.978Z,23.07
2024-03-01T07:27:14.347Z,21.63
2024-03-01T07:29:54.402Z,20.57
2024-03-01T07:32:36.176Z,21.97
2024-03-01T07:35:16.455Z,22.40
2024-03-01T07:37:56.847Z,22.00
2024-03-01T07:40:37.086Z,22.20
2024-03-01T07:43:17.463Z,21.47
2024-03-01T07:45:57.840Z,20.47
2024-03-01T07:48:38.129Z,23.33
2024-03-01T07:51:18.029Z,22.20
2024-03-01T07:53:58.156Z,24.00
2024-03-01T07:56:38.586Z,21.00
2024-03-01T07:59:18.723Z,22.07
2024-03-01T08:01:59.078Z,19.57
2024-03-01T08:04:40.434Z,21.97
2024-03-01T08:07:20.785Z,21.63
2024-03-01T08:10:00.682Z,21.47
2024-03-01T08:12:42.469Z,24.63
2024-03-01T08:15:26.925Z,22.53
2024-03-01T08:18:16.117Z,19.47
2024-03-01T08:21:05.153Z,19.27
2024-03-01T08:23:45.721Z,17.83
2024-03-01T08:26:26.644Z,17.53
2024-03-01T08:29:08.482Z,17.23
2024-03-01T08:31:48.797Z,16.73
2024-03-01T08:34:46.416Z,16.90
2024-03-01T08:37:29.860Z,16.13
2024-03-01T08:40:33.123Z,14.43
2024-03-01T08:43:13.174Z,14.37
2024-03-01T08:45:53.404Z,13.43
2024-03-01T08:48:34.779Z,15.47
2024-03-01T08:51:14.812Z,14.13
2024-03-01T08:54:03.219Z,13.37
2024-03-01T08:56:43.826Z,12.97
2024-03-01T08:59:46.258Z,13.27
2024-03-01T09:02:46.811Z,15.80
2024-03-01T09:05:28.870Z,18.20
2024-03-01T09:08:15.657Z,18.20
2024-03-01T09:10:57.471Z,19.43
2024-03-01T09:13:37.668Z,21.53
2024-03-01T09:16:22.626Z,20.20
2024-03-01T09:19:02.725Z,19.63
2024-03-01T09:21:42.993Z,18.63
2024-03-01T09:24:23.713Z,18.87
2024-03-01T09:27:09.960Z,17.40
2024-03-01T09:29:50.272Z,16.90
2024-03-01T09:32:33.390Z,16.27
2024-03-01T09:35:13.254Z,16.53
2024-03-01T09:37:54.283Z,16.37
2024-03-01T09:40:40.558Z,17.77
2024-03-01T09:43:35.259Z,17.63
2024-03-01T09:46:40.098Z,18.17
2024-03-01T09:49:41.860Z,17.00
2024-03-01T09:52:39.407Z,18.23
2024-03-01T09:55:33.428Z,19.57
2024-03-01T09:58:43.223Z,17.73
2024-03-01T10:01:40.313Z,16.53
2024-03-01T10:04:49.038Z,16.63
2024-03-01T10:07:58.809Z,16.23
2024-03-01T10:11:03.450Z,16.43
2024-03-01T10:14:01.860Z,16.03
2024-03-01T10:16:48.243Z,17.53
2024-03-01T10:19:51.097Z,18.57
2024-03-01T10:23:00.281Z,17.83
2024-03-01T10:26:03.634Z,17.00
2024-03-01T10:29:15.239Z,17.73
2024-03-01T10:32:11.558Z,17.33
2024-03-01T10:35:04.915Z,15.73
2024-03-01T10:38:03.943Z,16.10
2024-03-01T10:40:59.015Z,17.97
2024-03-01T10:44:02.631Z,17.17
2024-03-01T10:46:50.312Z,17.23
2024-03-01T10:49:40.532Z,16.57
2024-03-01T10:52:25.358Z,16.43
2024-03-01T10:55:13.344Z,15.70
2024-03-01T10:58:17.178Z,16.30
2024-03-01T11:01:08.363Z,15.70
2024-03-01T11:03:56.362Z,14.93
2024-03-01T11:06:43.666Z,13.90
2024-03-01T11:09:37.530Z,14.13
2024-03-01T11:12:36.561Z,15.53
2024-03-01T11:15:19.174Z,15.30
2024-03-01T11:18:07.636Z,14.77
2024-03-01T11:20:56.199Z,15.67
2024-03-01T11:23:40.792Z,15.13
2024-03-01T11:26:33.256Z,15.02
2024-03-01T11:29:32.121Z,15.47
2024-03-01T11:32:27.553Z,14.57
2024-03-01T11:35:34.283Z,15.17
2024-03-01T11:38:37.442Z,14.23
2024-03-01T11:41:34.464Z,15.05
2024-03-01T11:44:33.423Z,14.55
2024-03-01T11:47:24.007Z,13.85
2024-03-01T11:50:30.444Z,14.77
2024-03-01T11:53:37.699Z,14.25
2024-03-01T11:56:29.819Z,15.07
2024-03-01T11:59:25.265Z,15.85
2024-03-01T12:02:31.287Z,15.45
2024-03-01T12:05:39.697Z,16.33
2024-03-01T12:08:43.174Z,16.85
2024-03-01T12:11:31.958Z,15.90
2024-03-01T12:14:17.404Z,16.38
2024-03-01T12:17:13.422Z,16.05
2024-03-01T12:20:10.319Z,15.25
2024-03-01T12:23:08.355Z,15.55
2024-03-01T12:25:49.755Z,16.13
2024-03-01T12:29:02.122Z,16.10
2024-03-01T12:32:07.731Z,15.23
2024-03-01T12:35:11.027Z,14.10
2024-03-01T12:38:09.974Z,13.93
2024-03-01T12:40:59.185Z,14.57
2024-03-01T12:44:05.530Z,15.73
2024-03-01T12:47:23.149Z,14.45
2024-03-01T12:50:12.572Z,13.55
2024-03-01T12:53:03.069Z,13.77
2024-03-01T12:56:03.969Z,13.77
2024-03-01T12:59:19.667Z,12.80
2024-03-01T13:02:35.299Z,12.68
2024-03-01T13:05:29.137Z,11.88
2024-03-01T13:08:27.610Z,11.77
2024-03-01T13:11:12.750Z,10.90
2024-03-01T13:14:20.472Z,12.32
2024-03-01T13:17:25.124Z,11.35
2024-03-01T13:20:45.070Z,12.38
2024-03-01T13:23:36.049Z,15.55
2024-03-01T13:26:42.592Z,15.35
2024-03-01T13:29:28.592Z,16.42
2024-03-01T13:32:37.820Z,16.38
2024-03-01T13:35:23.995Z,16.85
2024-03-01T13:38:11.850Z,16.73
2024-03-01T13:41:00.406Z,12.93
2024-03-01T13:43:49.012Z,10.67
2024-03-01T13:46:38.038Z,10.17
2024-03-01T13:49:24.935Z,12.17
2024-03-01T13:52:08.886Z,10.33
2024-03-01T13:54:49.583Z,13.27
2024-03-01T13:57:33.823Z,13.57
2024-03-01T14:00:32.403Z,12.53
2024-03-01T14:03:12.584Z,14.57
2024-03-01T14:05:57.121Z,15.30
2024-03-01T14:08:38.745Z,14.67
2024-03-01T14:11:19.556Z,14.13
2024-03-01T14:13:59.954Z,14.87
2024-03-01T14:16:40.254Z,16.50
2024-03-01T14:19:20.698Z,17.50
2024-03-01T14:22:01.053Z,17.50
2024-03-01T14:24:41.434Z,17.10
2024-03-01T14:27:23.317Z,18.03
2024-03-01T14:30:08.169Z,20.70
2024-03-01T14:32:51.037Z,18.03
2024-03-01T14:35:30.967Z,17.63
2024-03-01T14:38:12.552Z,17.93
2024-03-01T14:40:56.272Z,18.10
2024-03-01T14:43:47.192Z,18.43
2024-03-01T14:46:33.854Z,17.97
2024-03-01T14:49:19.220Z,18.10
2024-03-01T14:52:09.934Z,19.23
2024-03-01T14:54:50.596Z,17.20
2024-03-01T14:57:30.962Z,18.17
2024-03-01T15:00:20.755Z,18.97
2024-03-01T15:03:01.430Z,17.30
2024-03-01T15:05:41.571Z,17.27
2024-03-01T15:08:21.851Z,18.00
2024-03-01T15:11:13.468Z,18.63
2024-03-01T15:13:54.556Z,18.50
2024-03-01T15:16:34.644Z,17.30
2024-03-01T15:19:17.034Z,17.70
2024-03-01T15:21:57.916Z,17.30
2024-03-01T15:24:37.836Z,18.57
2024-03-01T15:27:26.184Z,16.93
2024-03-01T15:30:06.440Z,16.83
2024-03-01T15:32:46.458Z,17.23
2024-03-01T15:35:28.269Z,17.57
2024-03-01T15:38:09.686Z,18.00
2024-03-01T15:40:50.707Z,19.07
2024-03-01T15:43:35.035Z,17.10
2024-03-01T15:46:17.828Z,18.37
2024-03-01T15:48:58.234Z,17.70
2024-03-01T15:51:39.613Z,17.23
2024-03-01T15:54:19.806Z,17.50
2024-03-01T15:56:59.738Z,16.70
2024-03-01T15:59:40.030Z,16.83
2024-03-01T16:02:22.905Z,17.57
2024-03-01T16:05:05.158Z,19.70
2024-03-01T16:07:49.241Z,16.83
2024-03-01T16:10:31.295Z,17.20
2024-03-01T16:13:11.672Z,17.00
2024-03-01T16:15:59.230Z,17.97
2024-03-01T16:18:41.186Z,18.93
2024-03-01T16:21:21.633Z,17.67
2024-03-01T16:24:06.235Z,17.30
2024-03-01T16:26:46.649Z,17.47
2024-03-01T16:29:31.842Z,17.70
2024-03-01T16:32:31.763Z,17.47
2024-03-01T16:35:24.227Z,17.47
2024-03-01T16:38:04.457Z,17.17
2024-03-01T16:40:44.755Z,16.77
2024-03-01T16:43:41.813Z,19.30
2024-03-01T16:46:30.774Z,18.73
2024-03-01T16:49:45.922Z,19.53
2024-03-01T16:52:26.233Z,18.30
2024-03-01T16:55:08.363Z,17.40
2024-03-01T16:57:48.501Z,17.37
2024-03-01T17:00:33.619Z,18.83
2024-03-01T17:03:36.510Z,18.27
2024-03-01T17:06:19.376Z,17.97
2024-03-01T17:08:59.323Z,20.00
2024-03-01T17:11:44.385Z,20.63
2024-03-01T17:14:25.524Z,21.53
2024-03-01T17:17:05.831Z,20.43
2024-03-01T17:19:49.025Z,20.33
2024-03-01T17:22:29.241Z,18.23
2024-03-01T17:25:09.396Z,20.17
2024-03-01T17:27:49.803Z,19.80
2024-03-01T17:30:30.064Z,19.10
2024-03-01T17:33:11.138Z,19.60
2024-03-01T17:35:51.296Z,18.43
2024-03-01T17:38:31.527Z,17.80
2024-03-01T17:41:11.892Z,16.67
2024-03-01T17:43:51.948Z,16.93
2024-03-01T17:46:35.277Z,17.97
2024-03-01T17:49:15.613Z,18.73
2024-03-01T17:51:56.323Z,17.10
2024-03-01T17:54:37.405Z,17.60
2024-03-01T17:57:17.513Z,17.10
2024-03-01T17:59:57.862Z,16.77
2024-03-01T18:02:38.091Z,17.17
2024-03-01T18:05:18.212Z,16.50
2024-03-01T18:07:58.383Z,17.30
2024-03-01T18:10:38.577Z,17.27
2024-03-01T18:13:19.346Z,17.30
2024-03-01T18:15:59.317Z,16.30
2024-03-01T18:18:39.265Z,17.03
2024-03-01T18:21:19.605Z,15.80
2024-03-01T18:24:00.288Z,16.20
2024-03-01T18:26:40.492Z,15.80
2024-03-01T18:29:20.740Z,16.73
2024-03-01T18:32:01.407Z,16.73
2024-03-01T18:34:41.478Z,16.40
2024-03-01T18:37:21.573Z,16.60
2024-03-01T18:40:01.812Z,17.70
2024-03-01T18:42:42.448Z,17.23
2024-03-01T18:45:22.328Z,17.53
2024-03-01T18:48:02.958Z,18.13
2024-03-01T18:50:43.196Z,17.03
2024-03-01T18:53:23.259Z,17.97
2024-03-01T18:56:04.392Z,17.17
2024-03-01T18:58:44.551Z,18.87
2024-03-01T19:01:25.742Z,18.93
2024-03-01T19:04:06.279Z,19.37
2024-03-01T19:06:46.280Z,19.93
2024-03-01T19:09:26.538Z,20.23
2024-03-01T19:12:07.129Z,19.93
2024-03-01T19:14:47.591Z,19.10
2024-03-01T19:17:27.625Z,19.93
2024-03-01T19:20:08.878Z,19.47
2024-03-01T19:22:49.144Z,19.70
2024-03-01T19:25:30.344Z,20.10
2024-03-01T19:28:10.614Z,20.27
2024-03-01T19:30:50.927Z,20.80
2024-03-01T19:33:31.009Z,20.73
2024-03-01T19:36:11.228Z,19.57
2024-03-01T19:38:51.243Z,21.33
2024-03-01T19:41:31.548Z,21.03
2024-03-01T19:44:12.059Z,20.50
2024-03-01T19:46:52.250Z,21.23
2024-03-01T19:49:32.530Z,20.53
2024-03-01T19:52:16.074Z,20.87
2024-03-01T19:54:56.268Z,20.50
2024-03-01T19:57:36.941Z,20.97
2024-03-01T20:00:19.243Z,20.03
2024-03-01T20:02:59.381Z,20.27
2024-03-01T20:05:39.642Z,20.87
2024-03-01T20:08:21.044Z,19.63
2024-03-01T20:11:01.479Z,20.03
2024-03-01T20:13:41.435Z,19.83
2024-03-01T20:16:21.633Z,20.30
2024-03-01T20:19:02.482Z,19.33
2024-03-01T20:21:42.487Z,20.60
2024-03-01T20:24:23.364Z,20.77
2024-03-01T20:27:03.503Z,20.13
2024-03-01T20:29:43.491Z,20.27
2024-03-01T20:32:23.561Z,21.47
2024-03-01T20:35:04.160Z,20.90
2024-03-01T20:37:45.095Z,20.83
2024-03-01T20:40:25.546Z,21.00
2024-03-01T20:43:05.483Z,19.63
2024-03-01T20:45:45.690Z,20.97
2024-03-01T20:48:25.807Z,20.53
2024-03-01T20:51:06.075Z,21.43
2024-03-01T20:53:46.137Z,20.57
2024-03-01T20:56:26.013Z,20.83
2024-03-01T20:59:07.244Z,19.20
2024-03-01T21:01:49.132Z,20.60
2024-03-01T21:04:29.426Z,19.70
2024-03-01T21:07:10.373Z,19.83
2024-03-01T21:09:50.321Z,20.87
2024-03-01T21:12:30.343Z,19.67
2024-03-01T21:15:10.718Z,20.47
2024-03-01T21:17:52.016Z,20.40
2024-03-01T21:20:35.391Z,19.33
2024-03-01T21:23:15.394Z,20.50
2024-03-01T21:25:55.683Z,20.23
2024-03-01T21:28:36.669Z,20.43
2024-03-01T21:31:16.987Z,20.20
2024-03-01T21:33:57.094Z,19.77
2024-03-01T21:36:37.991Z,20.00
2024-03-01T21:39:18.177Z,19.27
2024-03-01T21:41:58.407Z,20.60
2024-03-01T21:44:41.131Z,20.47
2024-03-01T21:47:22.791Z,20.50
2024-03-01T21:50:02.595Z,19.40
2024-03-01T21:52:42.873Z,19.93
2024-03-01T21:55:23.348Z,21.10
2024-03-01T21:58:03.825Z,20.30
2024-03-01T22:00:43.855Z,20.20
2024-03-01T22:03:24.124Z,20.07
2024-03-01T22:06:04.948Z,19.07
2024-03-01T22:08:44.891Z,20.23
2024-03-01T22:11:24.922Z,19.83
2024-03-01T22:14:05.623Z,20.47
2024-03-01T22:16:45.673Z,19.53
2024-03-01T22:19:25.936Z,19.83
2024-03-01T22:22:06.156Z,19.30
2024-03-01T22:24:46.794Z,19.67
2024-03-01T22:27:27.640Z,20.40
2024-03-01T22:30:08.455Z,18.83
2024-03-01T22:32:49.039Z,18.37
2024-03-01T22:35:29.248Z,19.77
2024-03-01T22:38:11.597Z,20.43
2024-03-01T22:40:51.557Z,20.20
2024-03-01T22:43:32.643Z,18.47
2024-03-01T22:46:13.657Z,19.63
2024-03-01T22:48:54.546Z,18.90
2024-03-01T22:51:34.822Z,19.97
2024-03-01T22:54:26.036Z,19.67
2024-03-01T22:57:06.359Z,18.83
2024-03-01T23:00:20.696Z,18.63
2024-03-01T23:03:18.029Z,20.03
2024-03-01T23:05:59.927Z,20.27
2024-03-01T23:08:47.721Z,20.87
2024-03-01T23:11:37.436Z,20.07
2024-03-01T23:14:46.260Z,19.63
2024-03-01T23:17:26.201Z,18.80
2024-03-01T23:20:06.993Z,20.23
2024-03-01T23:22:50.663Z,19.43
2024-03-01T23:25:31.252Z,20.33
2024-03-01T23:28:11.652Z,22.07
2024-03-01T23:30:52.791Z,21.77
2024-03-01T23:33:33.129Z,23.47
2024-03-01T23:36:13.610Z,23.50
2024-03-01T23:38:53.655Z,22.70
2024-03-01T23:41:33.593Z,23.90
2024-03-01T23:44:13.818Z,23.57
2024-03-01T23:46:53.990Z,22.47
2024-03-01T23:49:34.968Z,21.30
2024-03-01T23:52:14.955Z,19.97
2024-03-01T23:54:56.125Z,20.27
2024-03-01T23:57:37.462Z,19.17
